Ridgeway, VA (24148)

5:37 PM EDT on October 31, 2014 (GMT -0400)
Fontaine | Change Station
CLOSE
Current Station
Personal Weather Station
Location: Martinsville, VA
Elevation: 845 ft
Nearby Weather Stations

Elev 845 ft 36.63 °N, 79.86 °W | Updated 0 second ago

Partly Cloudy
Partly Cloudy
55.4 °F
Feels Like 55.4 °F
N
0.0
Wind Variable Wind from ESE
Gusts 0.0 mph

Today
High -- | Low -- °F
--% Chance of Precip.
Yesterday
High -- | Low -- °F
Precip. -- in
7:41 AM 6:23 PM
First Quarter, 59% visible
Pressure 29.85 in
Visibility 10.0 miles
Clouds Overcast 11000 ft
Dew Point 41 °F
Humidity 58%
Rainfall 0.00 in
Snow Depth Not available.
UV 0 out of 12
Pollen .70 out of 12
Air Quality Not available.
Flu Activity Not available.
METAR KMTV 312115Z AUTO 14003KT 10SM OVC110 12/05 A2985 RMK AO2 T01230054

More Conditions Fewer Conditions

Pressure 29.85 in
Visibility 10.0 miles
Clouds Overcast 11000 ft
Dew Point 41 °F
Humidity 58%
Rainfall 0.00 in
Snow Depth Not available.
UV 0 out of 12
Pollen .70 out of 12
Air Quality Not available.
Flu Activity Not available.
METAR KMTV 312115Z AUTO 14003KT 10SM OVC110 12/05 A2985 RMK AO2 T01230054

More Conditions Fewer Conditions

10-Day Weather Forecast

Almanac

Astronomy

Oct. 31, 2014 Rise Set
Actual Time
Civil Twilight
Nautical Twilight
Astronomical Twilight
Moon
Length of Visible Light
Length of Day
Tomorrow will be .
, % of the Moon is Illuminated

Today's Extremes

State Highs State Lows

Community

WunderPhotos

Upload Photos

1,766,738 photos uploaded!

WunderBlogs® & News

Nearby

Air Quality

  Air Quality AQ Index Pollutant
Not available.

Snow Depth

Station Depth Elevation

Earthquake Activity

City Distance Mag. Time & Date
Minimum magnitude displayed is 2.5.

Coastal Water Temperatures

Place Temperature

Nearby Weather Stations